sensor_id;sensor_type;location;lat;lon;timestamp;P1;durP1;ratioP1;P2;durP2;ratioP2
40793;SDS011;26502;51.886;15.604;2022-10-31T00:04:36;41.20;;;24.60;;
40793;SDS011;26502;51.886;15.604;2022-10-31T00:09:43;43.20;;;25.60;;
40793;SDS011;26502;51.886;15.604;2022-10-31T00:14:50;43.00;;;24.90;;
40793;SDS011;26502;51.886;15.604;2022-10-31T00:19:57;38.90;;;24.20;;
40793;SDS011;26502;51.886;15.604;2022-10-31T00:25:04;34.10;;;21.00;;
40793;SDS011;26502;51.886;15.604;2022-10-31T00:30:12;33.60;;;20.80;;
40793;SDS011;26502;51.886;15.604;2022-10-31T00:35:19;30.20;;;19.10;;
40793;SDS011;26502;51.886;15.604;2022-10-31T00:40:28;30.50;;;17.00;;
40793;SDS011;26502;51.886;15.604;2022-10-31T00:45:35;29.20;;;15.90;;
40793;SDS011;26502;51.886;15.604;2022-10-31T00:50:43;25.70;;;16.70;;
40793;SDS011;26502;51.886;15.604;2022-10-31T00:55:55;20.60;;;15.60;;
40793;SDS011;26502;51.886;15.604;2022-10-31T01:01:03;27.80;;;15.50;;
40793;SDS011;26502;51.886;15.604;2022-10-31T01:06:12;29.30;;;15.90;;
40793;SDS011;26502;51.886;15.604;2022-10-31T01:11:22;24.80;;;14.70;;
40793;SDS011;26502;51.886;15.604;2022-10-31T01:16:29;24.00;;;15.30;;
40793;SDS011;26502;51.886;15.604;2022-10-31T01:21:36;29.00;;;15.10;;
40793;SDS011;26502;51.886;15.604;2022-10-31T01:26:44;20.50;;;14.70;;
40793;SDS011;26502;51.886;15.604;2022-10-31T01:31:52;24.30;;;13.90;;
40793;SDS011;26502;51.886;15.604;2022-10-31T01:36:59;25.30;;;16.20;;
40793;SDS011;26502;51.886;15.604;2022-10-31T01:42:09;25.80;;;15.30;;
40793;SDS011;26502;51.886;15.604;2022-10-31T01:47:22;26.00;;;15.70;;
40793;SDS011;26502;51.886;15.604;2022-10-31T01:52:46;28.00;;;15.60;;
40793;SDS011;26502;51.886;15.604;2022-10-31T01:57:57;26.10;;;15.10;;
40793;SDS011;26502;51.886;15.604;2022-10-31T02:03:09;29.10;;;15.30;;
40793;SDS011;26502;51.886;15.604;2022-10-31T02:08:18;38.40;;;19.10;;
40793;SDS011;26502;51.886;15.604;2022-10-31T02:13:31;45.60;;;22.00;;
40793;SDS011;26502;51.886;15.604;2022-10-31T02:18:43;41.40;;;21.80;;
40793;SDS011;26502;51.886;15.604;2022-10-31T02:24:05;41.60;;;21.00;;
40793;SDS011;26502;51.886;15.604;2022-10-31T02:35:13;34.90;;;20.90;;
40793;SDS011;26502;51.886;15.604;2022-10-31T02:40:30;37.00;;;21.10;;
40793;SDS011;26502;51.886;15.604;2022-10-31T02:46:01;37.00;;;19.90;;
40793;SDS011;26502;51.886;15.604;2022-10-31T02:51:13;37.30;;;20.50;;
40793;SDS011;26502;51.886;15.604;2022-10-31T02:56:25;32.40;;;20.00;;
40793;SDS011;26502;51.886;15.604;2022-10-31T03:01:48;30.30;;;18.80;;
40793;SDS011;26502;51.886;15.604;2022-10-31T03:07:14;37.50;;;19.60;;
40793;SDS011;26502;51.886;15.604;2022-10-31T03:12:32;33.20;;;19.00;;
40793;SDS011;26502;51.886;15.604;2022-10-31T03:17:46;33.60;;;19.10;;
40793;SDS011;26502;51.886;15.604;2022-10-31T03:23:00;33.20;;;20.10;;
40793;SDS011;26502;51.886;15.604;2022-10-31T03:28:09;38.60;;;20.10;;
40793;SDS011;26502;51.886;15.604;2022-10-31T03:33:21;31.30;;;18.50;;
40793;SDS011;26502;51.886;15.604;2022-10-31T03:38:33;33.20;;;19.50;;
40793;SDS011;26502;51.886;15.604;2022-10-31T03:43:44;30.50;;;18.30;;
40793;SDS011;26502;51.886;15.604;2022-10-31T03:48:57;28.10;;;17.40;;
40793;SDS011;26502;51.886;15.604;2022-10-31T03:54:07;23.80;;;16.90;;
40793;SDS011;26502;51.886;15.604;2022-10-31T03:59:20;24.90;;;16.00;;
40793;SDS011;26502;51.886;15.604;2022-10-31T04:04:31;27.50;;;15.10;;
40793;SDS011;26502;51.886;15.604;2022-10-31T04:09:41;23.50;;;12.90;;
40793;SDS011;26502;51.886;15.604;2022-10-31T04:14:51;21.40;;;14.80;;
40793;SDS011;26502;51.886;15.604;2022-10-31T04:20:00;20.40;;;13.10;;
40793;SDS011;26502;51.886;15.604;2022-10-31T04:25:10;19.70;;;13.70;;
40793;SDS011;26502;51.886;15.604;2022-10-31T04:30:17;25.20;;;13.50;;
40793;SDS011;26502;51.886;15.604;2022-10-31T04:35:25;25.00;;;12.70;;
40793;SDS011;26502;51.886;15.604;2022-10-31T04:40:32;15.00;;;10.80;;
40793;SDS011;26502;51.886;15.604;2022-10-31T04:46:10;16.50;;;10.80;;
40793;SDS011;26502;51.886;15.604;2022-10-31T04:51:17;22.40;;;11.90;;
40793;SDS011;26502;51.886;15.604;2022-10-31T04:56:25;21.40;;;12.50;;
40793;SDS011;26502;51.886;15.604;2022-10-31T05:01:35;21.00;;;13.90;;
40793;SDS011;26502;51.886;15.604;2022-10-31T05:06:42;21.50;;;14.20;;
40793;SDS011;26502;51.886;15.604;2022-10-31T05:11:50;26.30;;;15.20;;
40793;SDS011;26502;51.886;15.604;2022-10-31T05:17:29;22.60;;;12.60;;
40793;SDS011;26502;51.886;15.604;2022-10-31T05:22:57;23.50;;;12.90;;
40793;SDS011;26502;51.886;15.604;2022-10-31T05:28:04;20.40;;;13.80;;
40793;SDS011;26502;51.886;15.604;2022-10-31T05:33:12;20.60;;;11.30;;
40793;SDS011;26502;51.886;15.604;2022-10-31T05:38:51;23.30;;;12.60;;
40793;SDS011;26502;51.886;15.604;2022-10-31T05:44:02;25.50;;;15.70;;
40793;SDS011;26502;51.886;15.604;2022-10-31T05:49:13;28.70;;;16.60;;
40793;SDS011;26502;51.886;15.604;2022-10-31T05:54:39;27.00;;;18.20;;
40793;SDS011;26502;51.886;15.604;2022-10-31T05:59:47;25.30;;;17.10;;
40793;SDS011;26502;51.886;15.604;2022-10-31T06:10:03;20.30;;;12.60;;
40793;SDS011;26502;51.886;15.604;2022-10-31T06:15:12;20.10;;;12.60;;
40793;SDS011;26502;51.886;15.604;2022-10-31T06:20:20;21.60;;;13.80;;
40793;SDS011;26502;51.886;15.604;2022-10-31T06:25:35;21.40;;;13.60;;
40793;SDS011;26502;51.886;15.604;2022-10-31T06:30:42;21.20;;;13.20;;
40793;SDS011;26502;51.886;15.604;2022-10-31T06:35:49;20.60;;;12.70;;
40793;SDS011;26502;51.886;15.604;2022-10-31T06:40:56;26.60;;;14.30;;
40793;SDS011;26502;51.886;15.604;2022-10-31T06:46:16;21.80;;;13.00;;
40793;SDS011;26502;51.886;15.604;2022-10-31T06:51:35;21.60;;;11.70;;
40793;SDS011;26502;51.886;15.604;2022-10-31T06:56:45;23.70;;;11.40;;
40793;SDS011;26502;51.886;15.604;2022-10-31T07:01:53;18.70;;;11.30;;
40793;SDS011;26502;51.886;15.604;2022-10-31T07:07:00;27.20;;;11.20;;
40793;SDS011;26502;51.886;15.604;2022-10-31T07:12:07;26.30;;;12.10;;
40793;SDS011;26502;51.886;15.604;2022-10-31T07:17:17;20.20;;;11.40;;
40793;SDS011;26502;51.886;15.604;2022-10-31T07:22:33;20.90;;;11.60;;
40793;SDS011;26502;51.886;15.604;2022-10-31T07:27:42;23.40;;;12.80;;
40793;SDS011;26502;51.886;15.604;2022-10-31T07:32:50;26.80;;;12.80;;
40793;SDS011;26502;51.886;15.604;2022-10-31T07:38:05;20.20;;;12.40;;
40793;SDS011;26502;51.886;15.604;2022-10-31T07:43:13;16.80;;;11.70;;
40793;SDS011;26502;51.886;15.604;2022-10-31T07:48:41;19.10;;;11.30;;
40793;SDS011;26502;51.886;15.604;2022-10-31T07:54:07;20.30;;;11.60;;
40793;SDS011;26502;51.886;15.604;2022-10-31T07:59:15;17.20;;;10.30;;
40793;SDS011;26502;51.886;15.604;2022-10-31T08:04:22;17.00;;;9.50;;
40793;SDS011;26502;51.886;15.604;2022-10-31T08:09:48;17.40;;;10.50;;
40793;SDS011;26502;51.886;15.604;2022-10-31T08:15:01;18.10;;;10.30;;
40793;SDS011;26502;51.886;15.604;2022-10-31T08:20:09;17.50;;;10.00;;
40793;SDS011;26502;51.886;15.604;2022-10-31T08:25:22;12.60;;;8.20;;
40793;SDS011;26502;51.886;15.604;2022-10-31T08:30:31;12.80;;;8.70;;
40793;SDS011;26502;51.886;15.604;2022-10-31T08:35:59;18.00;;;9.60;;
40793;SDS011;26502;51.886;15.604;2022-10-31T08:41:44;16.00;;;8.30;;
40793;SDS011;26502;51.886;15.604;2022-10-31T08:46:52;16.10;;;9.60;;
40793;SDS011;26502;51.886;15.604;2022-10-31T08:52:00;16.50;;;8.40;;
40793;SDS011;26502;51.886;15.604;2022-10-31T08:57:11;13.30;;;9.30;;
40793;SDS011;26502;51.886;15.604;2022-10-31T09:02:20;12.70;;;8.50;;
40793;SDS011;26502;51.886;15.604;2022-10-31T09:07:32;17.10;;;8.50;;
40793;SDS011;26502;51.886;15.604;2022-10-31T09:12:39;16.70;;;9.10;;
40793;SDS011;26502;51.886;15.604;2022-10-31T09:17:49;17.60;;;8.80;;
40793;SDS011;26502;51.886;15.604;2022-10-31T09:23:15;13.80;;;7.90;;
40793;SDS011;26502;51.886;15.604;2022-10-31T09:28:24;16.80;;;9.20;;
40793;SDS011;26502;51.886;15.604;2022-10-31T09:33:32;13.70;;;7.90;;
40793;SDS011;26502;51.886;15.604;2022-10-31T09:38:56;17.60;;;8.70;;
40793;SDS011;26502;51.886;15.604;2022-10-31T09:44:04;14.00;;;8.30;;
40793;SDS011;26502;51.886;15.604;2022-10-31T09:49:32;12.60;;;7.80;;
40793;SDS011;26502;51.886;15.604;2022-10-31T09:54:48;16.30;;;8.70;;
40793;SDS011;26502;51.886;15.604;2022-10-31T09:59:59;12.80;;;7.90;;
40793;SDS011;26502;51.886;15.604;2022-10-31T10:05:19;16.90;;;7.80;;
40793;SDS011;26502;51.886;15.604;2022-10-31T10:10:38;16.70;;;8.70;;
40793;SDS011;26502;51.886;15.604;2022-10-31T10:16:16;15.70;;;9.10;;
40793;SDS011;26502;51.886;15.604;2022-10-31T10:21:39;14.40;;;8.30;;
40793;SDS011;26502;51.886;15.604;2022-10-31T10:26:53;18.60;;;8.00;;
40793;SDS011;26502;51.886;15.604;2022-10-31T10:32:10;15.90;;;8.70;;
40793;SDS011;26502;51.886;15.604;2022-10-31T10:37:26;20.70;;;9.20;;
40793;SDS011;26502;51.886;15.604;2022-10-31T10:42:36;19.50;;;8.90;;
40793;SDS011;26502;51.886;15.604;2022-10-31T10:48:05;21.70;;;8.70;;
40793;SDS011;26502;51.886;15.604;2022-10-31T10:53:38;18.80;;;8.30;;
40793;SDS011;26502;51.886;15.604;2022-10-31T10:59:03;19.00;;;8.40;;
40793;SDS011;26502;51.886;15.604;2022-10-31T11:04:19;17.60;;;8.60;;
40793;SDS011;26502;51.886;15.604;2022-10-31T11:09:36;19.00;;;8.70;;
40793;SDS011;26502;51.886;15.604;2022-10-31T11:14:45;12.80;;;8.30;;
40793;SDS011;26502;51.886;15.604;2022-10-31T11:20:01;14.30;;;7.80;;
40793;SDS011;26502;51.886;15.604;2022-10-31T11:25:21;17.80;;;8.00;;
40793;SDS011;26502;51.886;15.604;2022-10-31T11:30:29;19.30;;;9.20;;
40793;SDS011;26502;51.886;15.604;2022-10-31T11:35:48;14.20;;;8.40;;
40793;SDS011;26502;51.886;15.604;2022-10-31T11:40:58;16.80;;;8.70;;
40793;SDS011;26502;51.886;15.604;2022-10-31T11:46:13;13.90;;;8.10;;
40793;SDS011;26502;51.886;15.604;2022-10-31T11:51:25;19.30;;;8.20;;
40793;SDS011;26502;51.886;15.604;2022-10-31T11:56:39;17.70;;;7.90;;
40793;SDS011;26502;51.886;15.604;2022-10-31T12:01:49;13.50;;;8.10;;
40793;SDS011;26502;51.886;15.604;2022-10-31T12:06:56;14.60;;;7.40;;
40793;SDS011;26502;51.886;15.604;2022-10-31T12:17:25;23.00;;;8.50;;
40793;SDS011;26502;51.886;15.604;2022-10-31T12:22:42;16.30;;;8.80;;
40793;SDS011;26502;51.886;15.604;2022-10-31T12:27:58;17.90;;;8.60;;
40793;SDS011;26502;51.886;15.604;2022-10-31T12:33:15;17.60;;;8.80;;
40793;SDS011;26502;51.886;15.604;2022-10-31T12:49:57;15.80;;;7.30;;
40793;SDS011;26502;51.886;15.604;2022-10-31T12:55:19;16.90;;;8.20;;
40793;SDS011;26502;51.886;15.604;2022-10-31T13:00:37;23.20;;;8.70;;
40793;SDS011;26502;51.886;15.604;2022-10-31T13:05:49;15.30;;;7.50;;
40793;SDS011;26502;51.886;15.604;2022-10-31T13:11:04;16.80;;;8.00;;
40793;SDS011;26502;51.886;15.604;2022-10-31T13:16:15;17.00;;;8.40;;
40793;SDS011;26502;51.886;15.604;2022-10-31T13:21:26;17.90;;;7.70;;
40793;SDS011;26502;51.886;15.604;2022-10-31T13:26:37;14.70;;;9.00;;
40793;SDS011;26502;51.886;15.604;2022-10-31T13:31:48;23.00;;;8.30;;
40793;SDS011;26502;51.886;15.604;2022-10-31T13:36:58;18.30;;;8.90;;
40793;SDS011;26502;51.886;15.604;2022-10-31T13:42:13;17.10;;;7.30;;
40793;SDS011;26502;51.886;15.604;2022-10-31T13:47:27;16.10;;;7.70;;
40793;SDS011;26502;51.886;15.604;2022-10-31T13:52:34;15.50;;;7.50;;
40793;SDS011;26502;51.886;15.604;2022-10-31T13:57:41;15.20;;;7.60;;
40793;SDS011;26502;51.886;15.604;2022-10-31T14:02:50;18.60;;;8.00;;
40793;SDS011;26502;51.886;15.604;2022-10-31T14:08:01;17.90;;;7.30;;
40793;SDS011;26502;51.886;15.604;2022-10-31T14:13:15;19.20;;;7.20;;
40793;SDS011;26502;51.886;15.604;2022-10-31T14:18:34;14.50;;;7.60;;
40793;SDS011;26502;51.886;15.604;2022-10-31T14:23:44;14.00;;;7.30;;
40793;SDS011;26502;51.886;15.604;2022-10-31T14:28:52;17.70;;;7.90;;
40793;SDS011;26502;51.886;15.604;2022-10-31T14:34:00;13.40;;;7.30;;
40793;SDS011;26502;51.886;15.604;2022-10-31T14:39:13;17.00;;;7.70;;
40793;SDS011;26502;51.886;15.604;2022-10-31T14:50:23;14.60;;;7.40;;
40793;SDS011;26502;51.886;15.604;2022-10-31T14:55:40;14.10;;;6.80;;
40793;SDS011;26502;51.886;15.604;2022-10-31T15:00:53;17.40;;;7.40;;
40793;SDS011;26502;51.886;15.604;2022-10-31T15:06:03;12.60;;;6.70;;
40793;SDS011;26502;51.886;15.604;2022-10-31T15:11:17;15.50;;;6.00;;
40793;SDS011;26502;51.886;15.604;2022-10-31T15:16:27;12.80;;;6.90;;
40793;SDS011;26502;51.886;15.604;2022-10-31T15:21:39;16.60;;;7.20;;
40793;SDS011;26502;51.886;15.604;2022-10-31T15:26:48;10.00;;;6.30;;
40793;SDS011;26502;51.886;15.604;2022-10-31T15:31:58;15.10;;;6.80;;
40793;SDS011;26502;51.886;15.604;2022-10-31T15:37:07;12.60;;;7.00;;
40793;SDS011;26502;51.886;15.604;2022-10-31T15:42:21;14.20;;;6.80;;
40793;SDS011;26502;51.886;15.604;2022-10-31T15:47:32;16.60;;;6.70;;
40793;SDS011;26502;51.886;15.604;2022-10-31T15:52:40;24.00;;;6.60;;
40793;SDS011;26502;51.886;15.604;2022-10-31T15:57:51;11.50;;;6.80;;
40793;SDS011;26502;51.886;15.604;2022-10-31T16:03:19;10.40;;;5.60;;
40793;SDS011;26502;51.886;15.604;2022-10-31T16:08:34;16.40;;;7.40;;
40793;SDS011;26502;51.886;15.604;2022-10-31T16:13:51;17.50;;;6.90;;
40793;SDS011;26502;51.886;15.604;2022-10-31T16:19:01;10.20;;;6.10;;
40793;SDS011;26502;51.886;15.604;2022-10-31T16:24:14;16.40;;;6.80;;
40793;SDS011;26502;51.886;15.604;2022-10-31T16:29:27;13.50;;;6.60;;
40793;SDS011;26502;51.886;15.604;2022-10-31T16:34:42;15.60;;;5.80;;
40793;SDS011;26502;51.886;15.604;2022-10-31T16:39:49;12.50;;;6.40;;
40793;SDS011;26502;51.886;15.604;2022-10-31T16:44:57;16.00;;;6.50;;
40793;SDS011;26502;51.886;15.604;2022-10-31T16:50:10;19.80;;;6.80;;
40793;SDS011;26502;51.886;15.604;2022-10-31T16:55:21;12.20;;;6.10;;
40793;SDS011;26502;51.886;15.604;2022-10-31T17:00:28;16.00;;;6.40;;
40793;SDS011;26502;51.886;15.604;2022-10-31T17:05:36;14.30;;;6.40;;
40793;SDS011;26502;51.886;15.604;2022-10-31T17:10:43;9.90;;;5.90;;
40793;SDS011;26502;51.886;15.604;2022-10-31T17:15:56;21.30;;;6.40;;
40793;SDS011;26502;51.886;15.604;2022-10-31T17:21:05;12.20;;;6.40;;
40793;SDS011;26502;51.886;15.604;2022-10-31T17:26:17;10.00;;;6.10;;
40793;SDS011;26502;51.886;15.604;2022-10-31T17:31:27;12.10;;;6.10;;
40793;SDS011;26502;51.886;15.604;2022-10-31T17:36:35;11.60;;;6.10;;
40793;SDS011;26502;51.886;15.604;2022-10-31T17:41:43;15.00;;;7.10;;
40793;SDS011;26502;51.886;15.604;2022-10-31T17:46:54;15.00;;;7.10;;
40793;SDS011;26502;51.886;15.604;2022-10-31T17:52:00;11.60;;;6.80;;
40793;SDS011;26502;51.886;15.604;2022-10-31T17:57:09;17.70;;;7.10;;
40793;SDS011;26502;51.886;15.604;2022-10-31T18:02:17;12.90;;;6.20;;
40793;SDS011;26502;51.886;15.604;2022-10-31T18:07:24;10.60;;;5.80;;
40793;SDS011;26502;51.886;15.604;2022-10-31T18:12:33;15.00;;;8.10;;
40793;SDS011;26502;51.886;15.604;2022-10-31T18:17:41;14.80;;;6.40;;
40793;SDS011;26502;51.886;15.604;2022-10-31T18:22:49;15.00;;;6.40;;
40793;SDS011;26502;51.886;15.604;2022-10-31T18:27:57;15.10;;;7.80;;
40793;SDS011;26502;51.886;15.604;2022-10-31T18:33:04;12.80;;;7.10;;
40793;SDS011;26502;51.886;15.604;2022-10-31T18:38:12;17.00;;;8.20;;
40793;SDS011;26502;51.886;15.604;2022-10-31T18:43:20;15.50;;;7.30;;
40793;SDS011;26502;51.886;15.604;2022-10-31T18:53:34;17.00;;;8.30;;
40793;SDS011;26502;51.886;15.604;2022-10-31T18:58:42;25.00;;;11.40;;
40793;SDS011;26502;51.886;15.604;2022-10-31T19:03:53;33.00;;;11.50;;
40793;SDS011;26502;51.886;15.604;2022-10-31T19:09:04;14.90;;;9.90;;
40793;SDS011;26502;51.886;15.604;2022-10-31T19:14:12;19.30;;;11.70;;
40793;SDS011;26502;51.886;15.604;2022-10-31T19:19:21;21.30;;;12.30;;
40793;SDS011;26502;51.886;15.604;2022-10-31T19:24:28;24.30;;;15.70;;
40793;SDS011;26502;51.886;15.604;2022-10-31T19:29:36;24.90;;;15.80;;
40793;SDS011;26502;51.886;15.604;2022-10-31T19:34:44;31.10;;;17.60;;
40793;SDS011;26502;51.886;15.604;2022-10-31T19:39:52;29.60;;;18.90;;
40793;SDS011;26502;51.886;15.604;2022-10-31T19:45:00;28.70;;;18.90;;
40793;SDS011;26502;51.886;15.604;2022-10-31T19:50:08;27.70;;;17.10;;
40793;SDS011;26502;51.886;15.604;2022-10-31T20:00:23;26.60;;;15.50;;
40793;SDS011;26502;51.886;15.604;2022-10-31T20:05:31;25.30;;;15.50;;
40793;SDS011;26502;51.886;15.604;2022-10-31T20:10:51;26.00;;;16.20;;
40793;SDS011;26502;51.886;15.604;2022-10-31T20:15:59;27.90;;;16.60;;
40793;SDS011;26502;51.886;15.604;2022-10-31T20:21:10;27.40;;;15.30;;
40793;SDS011;26502;51.886;15.604;2022-10-31T20:26:20;29.30;;;13.80;;
40793;SDS011;26502;51.886;15.604;2022-10-31T20:31:33;20.50;;;12.40;;
40793;SDS011;26502;51.886;15.604;2022-10-31T20:36:42;27.00;;;12.30;;
40793;SDS011;26502;51.886;15.604;2022-10-31T20:41:51;18.80;;;12.20;;
40793;SDS011;26502;51.886;15.604;2022-10-31T20:46:58;21.30;;;12.80;;
40793;SDS011;26502;51.886;15.604;2022-10-31T20:52:05;22.80;;;12.20;;
40793;SDS011;26502;51.886;15.604;2022-10-31T20:57:13;22.80;;;12.50;;
40793;SDS011;26502;51.886;15.604;2022-10-31T21:02:21;15.60;;;11.80;;
40793;SDS011;26502;51.886;15.604;2022-10-31T21:07:30;18.20;;;11.80;;
40793;SDS011;26502;51.886;15.604;2022-10-31T21:17:44;21.30;;;11.50;;
40793;SDS011;26502;51.886;15.604;2022-10-31T21:22:51;16.00;;;10.30;;
40793;SDS011;26502;51.886;15.604;2022-10-31T21:27:58;21.80;;;10.10;;
40793;SDS011;26502;51.886;15.604;2022-10-31T21:33:06;16.80;;;11.30;;
40793;SDS011;26502;51.886;15.604;2022-10-31T21:38:16;24.90;;;11.60;;
40793;SDS011;26502;51.886;15.604;2022-10-31T21:43:25;21.00;;;11.80;;
40793;SDS011;26502;51.886;15.604;2022-10-31T21:53:41;18.20;;;10.90;;
40793;SDS011;26502;51.886;15.604;2022-10-31T21:59:06;21.50;;;10.80;;
40793;SDS011;26502;51.886;15.604;2022-10-31T22:04:14;17.90;;;11.60;;
40793;SDS011;26502;51.886;15.604;2022-10-31T22:09:21;17.20;;;11.00;;
40793;SDS011;26502;51.886;15.604;2022-10-31T22:14:28;17.50;;;11.10;;
40793;SDS011;26502;51.886;15.604;2022-10-31T22:19:35;20.20;;;11.20;;
40793;SDS011;26502;51.886;15.604;2022-10-31T22:24:43;20.70;;;11.40;;
40793;SDS011;26502;51.886;15.604;2022-10-31T22:29:51;19.80;;;10.70;;
40793;SDS011;26502;51.886;15.604;2022-10-31T22:34:58;22.50;;;11.50;;
40793;SDS011;26502;51.886;15.604;2022-10-31T22:40:05;19.80;;;11.70;;
40793;SDS011;26502;51.886;15.604;2022-10-31T22:45:15;19.20;;;12.30;;
40793;SDS011;26502;51.886;15.604;2022-10-31T22:50:22;21.50;;;12.00;;
40793;SDS011;26502;51.886;15.604;2022-10-31T22:55:29;21.90;;;12.90;;
40793;SDS011;26502;51.886;15.604;2022-10-31T23:00:38;22.80;;;12.20;;
40793;SDS011;26502;51.886;15.604;2022-10-31T23:05:54;18.30;;;12.80;;
40793;SDS011;26502;51.886;15.604;2022-10-31T23:11:02;23.40;;;13.30;;
40793;SDS011;26502;51.886;15.604;2022-10-31T23:16:16;21.70;;;13.20;;
40793;SDS011;26502;51.886;15.604;2022-10-31T23:21:23;24.30;;;14.20;;
40793;SDS011;26502;51.886;15.604;2022-10-31T23:26:46;25.20;;;14.40;;
40793;SDS011;26502;51.886;15.604;2022-10-31T23:32:19;26.50;;;14.80;;
40793;SDS011;26502;51.886;15.604;2022-10-31T23:37:31;20.40;;;14.30;;
40793;SDS011;26502;51.886;15.604;2022-10-31T23:42:39;20.40;;;14.10;;
40793;SDS011;26502;51.886;15.604;2022-10-31T23:47:47;27.80;;;15.50;;
40793;SDS011;26502;51.886;15.604;2022-10-31T23:52:54;25.20;;;14.50;;
40793;SDS011;26502;51.886;15.604;2022-10-31T23:58:01;25.20;;;14.50;;
